Weather at Tanah Grogot Airport

Public forecast

Using degrees Celsius for public forecast. Weather courtesy of forecast.io.

Closest aviation weather report (METAR) to Tanah Grogot Airport

Closest report is Sultan Aji Muhammad Sulaiman Sepinggan International Airport, 53.3 nm (98.7 km) NE.

2024/07/20 15:00 (retrieved 41 minutes ago)

WALL 201500Z 25004KT 220V300 9000 SCT020 28/26 Q1011 NOSIG

Closest aviation forecast (TAF) to Tanah Grogot Airport

Forecast is more than 12 hours old.

Closest forecast is Sultan Aji Muhammad Sulaiman Sepinggan International Airport, 53.3 nm (98.7 km) NE.

2024/07/18 06:00 (retrieved 2 days ago)

TAF WALL 180500Z 1806/1912 24007KT 9999 SCT020 TEMPO 1806/1809 5000 RA